Time;durP1;ratioP1;P1;durP2;ratioP2;P2;SDS_P1;SDS_P2;PMS_P1;PMS_P2;Temp;Humidity;BMP_temperature;BMP_pressure;BME280_temperature;BME280_humidity;BME280_pressure;Samples;Min_cycle;Max_cycle;Signal;HPM_P1;HPM_P2
2021/10/26 00:01:33;;;;;;;24.02;16.38;;;;;;;;;;5021586;28;20128;-82
2021/10/26 00:04:00;;;;;;;29.23;16.15;;;;;;;;;;5021656;28;20052;-80
2021/10/26 00:06:27;;;;;;;28.40;17.33;;;;;;;;;;5024340;28;20438;-81
2021/10/26 00:08:55;;;;;;;28.55;17.90;;;;;;;;;;5019980;28;20061;-80
2021/10/26 00:11:22;;;;;;;31.27;18.55;;;;;;;;;;5002534;28;20058;-80
2021/10/26 00:13:49;;;;;;;30.08;19.48;;;;;;;;;;5020606;28;20146;-80
2021/10/26 00:16:16;;;;;;;30.60;19.58;;;;;;;;;;5002397;28;20136;-81
2021/10/26 00:18:43;;;;;;;35.13;18.65;;;;;;;;;;5019723;28;20120;-80
2021/10/26 00:21:09;;;;;;;32.85;20.27;;;;;;;;;;5019540;28;20253;-80
2021/10/26 00:23:39;;;;;;;31.13;20.15;;;;;;;;;;5001585;28;20050;-80
2021/10/26 00:26:07;;;;;;;36.08;20.80;;;;;;;;;;5004976;28;20050;-79
2021/10/26 00:28:34;;;;;;;34.00;20.95;;;;;;;;;;5022255;28;20304;-80
2021/10/26 00:31:02;;;;;;;36.65;19.83;;;;;;;;;;5006330;28;20046;-80
2021/10/26 00:33:32;;;;;;;32.22;20.60;;;;;;;;;;5019540;28;20058;-80
2021/10/26 00:35:58;;;;;;;37.55;20.80;;;;;;;;;;5015681;28;20057;-81
2021/10/26 00:38:25;;;;;;;33.20;20.98;;;;;;;;;;5023561;28;20052;-80
2021/10/26 00:40:53;;;;;;;33.08;20.55;;;;;;;;;;5020808;28;20050;-81
2021/10/26 00:43:20;;;;;;;31.77;20.00;;;;;;;;;;5015495;28;20088;-80
2021/10/26 00:45:47;;;;;;;35.67;21.30;;;;;;;;;;5021865;28;20046;-80
2021/10/26 00:48:14;;;;;;;32.83;21.33;;;;;;;;;;5018372;28;20366;-80
2021/10/26 00:50:41;;;;;;;30.77;20.05;;;;;;;;;;5009817;28;20148;-80
2021/10/26 00:53:11;;;;;;;32.63;20.50;;;;;;;;;;5025848;28;20077;-80
2021/10/26 00:55:38;;;;;;;35.03;21.67;;;;;;;;;;5013457;28;20333;-81
2021/10/26 00:58:05;;;;;;;30.55;19.80;;;;;;;;;;5015925;28;20053;-80
2021/10/26 01:00:32;;;;;;;33.92;20.83;;;;;;;;;;5014219;28;20053;-80
2021/10/26 01:02:59;;;;;;;29.42;19.50;;;;;;;;;;5015886;28;20049;-80
2021/10/26 01:05:26;;;;;;;32.88;20.73;;;;;;;;;;5010881;28;20104;-80
2021/10/26 01:07:53;;;;;;;33.63;20.27;;;;;;;;;;5021466;28;20045;-80
2021/10/26 01:10:21;;;;;;;32.25;20.58;;;;;;;;;;5005502;28;20081;-80
2021/10/26 01:12:48;;;;;;;30.83;20.85;;;;;;;;;;5004591;28;20084;-80
2021/10/26 01:15:15;;;;;;;29.88;20.55;;;;;;;;;;5022990;28;20156;-79
2021/10/26 01:17:42;;;;;;;29.73;20.75;;;;;;;;;;5023039;28;20045;-80
2021/10/26 01:20:09;;;;;;;30.38;19.85;;;;;;;;;;5004400;28;20052;-80
2021/10/26 01:22:39;;;;;;;34.65;20.98;;;;;;;;;;5002915;28;20054;-80
2021/10/26 01:25:11;;;;;;;32.72;20.30;;;;;;;;;;5002674;28;20046;-80
2021/10/26 01:27:39;;;;;;;36.33;20.00;;;;;;;;;;5021084;28;20073;-80
2021/10/26 01:30:07;;;;;;;32.50;20.92;;;;;;;;;;5021220;28;20115;-80
2021/10/26 01:32:34;;;;;;;30.38;20.65;;;;;;;;;;5002890;28;20057;-80
2021/10/26 01:35:01;;;;;;;29.73;20.73;;;;;;;;;;5003591;28;20160;-80
2021/10/26 01:37:30;;;;;;;36.47;21.52;;;;;;;;;;5004017;28;20058;-81
2021/10/26 01:39:58;;;;;;;32.85;21.48;;;;;;;;;;5005043;28;20137;-81
2021/10/26 01:42:25;;;;;;;35.15;22.35;;;;;;;;;;5004475;28;20166;-81
2021/10/26 01:44:52;;;;;;;37.65;22.27;;;;;;;;;;5022500;28;20125;-81
2021/10/26 01:47:22;;;;;;;30.15;21.45;;;;;;;;;;5021930;28;20061;-80
2021/10/26 01:49:48;;;;;;;34.13;21.85;;;;;;;;;;5004418;28;20270;-81
2021/10/26 01:52:15;;;;;;;32.80;21.50;;;;;;;;;;5022251;28;20057;-81
2021/10/26 01:54:42;;;;;;;29.77;20.80;;;;;;;;;;5023936;28;20053;-80
2021/10/26 01:57:09;;;;;;;34.55;22.08;;;;;;;;;;5025128;28;20099;-81
2021/10/26 01:59:35;;;;;;;30.63;21.02;;;;;;;;;;5040626;28;20050;-80
2021/10/26 02:02:02;;;;;;;36.80;23.50;;;;;;;;;;5037624;28;20111;-81
2021/10/26 02:04:30;;;;;;;36.40;22.60;;;;;;;;;;5022295;28;20402;-81
2021/10/26 02:06:57;;;;;;;35.72;23.05;;;;;;;;;;5039780;28;20055;-80
2021/10/26 02:09:23;;;;;;;38.00;23.13;;;;;;;;;;5024028;28;20460;-81
2021/10/26 02:11:50;;;;;;;36.78;22.30;;;;;;;;;;5023663;28;20081;-81
2021/10/26 02:14:20;;;;;;;39.72;23.05;;;;;;;;;;5041541;28;20053;-80
2021/10/26 02:16:48;;;;;;;36.45;23.17;;;;;;;;;;5025089;28;20085;-81
2021/10/26 02:19:15;;;;;;;38.50;22.55;;;;;;;;;;5040190;28;20072;-81
2021/10/26 02:21:43;;;;;;;40.47;23.38;;;;;;;;;;5023257;28;20072;-80
2021/10/26 02:24:11;;;;;;;37.80;22.67;;;;;;;;;;5024210;28;20041;-81
2021/10/26 02:26:38;;;;;;;40.03;23.33;;;;;;;;;;5008090;28;20053;-81
2021/10/26 02:29:04;;;;;;;35.70;22.33;;;;;;;;;;5023215;28;20053;-80
2021/10/26 02:31:31;;;;;;;36.25;21.90;;;;;;;;;;5020226;28;20050;-81
2021/10/26 02:33:58;;;;;;;36.50;22.77;;;;;;;;;;5020798;28;20351;-81
2021/10/26 02:36:24;;;;;;;33.22;22.52;;;;;;;;;;5004080;28;20050;-80
2021/10/26 02:38:57;;;;;;;38.28;22.85;;;;;;;;;;5021251;28;20054;-81
2021/10/26 02:41:24;;;;;;;37.42;22.55;;;;;;;;;;5001952;28;20085;-80
2021/10/26 02:43:51;;;;;;;36.45;23.13;;;;;;;;;;5020279;28;20325;-80
2021/10/26 02:46:21;;;;;;;38.30;21.58;;;;;;;;;;5002485;28;20050;-81
2021/10/26 02:48:50;;;;;;;38.65;22.73;;;;;;;;;;5019850;28;20042;-80
2021/10/26 02:51:19;;;;;;;35.70;23.35;;;;;;;;;;5002025;28;20054;-80
2021/10/26 02:53:50;;;;;;;39.55;25.02;;;;;;;;;;5019357;28;20057;-80
2021/10/26 02:56:17;;;;;;;41.55;25.33;;;;;;;;;;5024997;28;20049;-80
2021/10/26 02:58:44;;;;;;;39.70;23.95;;;;;;;;;;5021818;28;20058;-80
2021/10/26 03:01:13;;;;;;;37.25;24.55;;;;;;;;;;5023068;28;20054;-81
2021/10/26 03:03:40;;;;;;;38.28;24.58;;;;;;;;;;5023605;28;20042;-80
2021/10/26 03:06:07;;;;;;;38.28;24.40;;;;;;;;;;5027596;28;20045;-81
2021/10/26 03:08:34;;;;;;;38.45;25.80;;;;;;;;;;5043953;28;20059;-81
2021/10/26 03:11:01;;;;;;;36.38;23.48;;;;;;;;;;5042727;28;20107;-80
2021/10/26 03:13:28;;;;;;;40.38;24.95;;;;;;;;;;5043990;28;20045;-80
2021/10/26 03:15:55;;;;;;;41.72;24.13;;;;;;;;;;5044446;28;20068;-80
2021/10/26 03:18:22;;;;;;;35.30;24.77;;;;;;;;;;5043546;28;20421;-80
2021/10/26 03:20:48;;;;;;;44.17;26.90;;;;;;;;;;5043549;28;20372;-80
2021/10/26 03:23:15;;;;;;;40.50;25.08;;;;;;;;;;5026985;28;20046;-80
2021/10/26 03:25:45;;;;;;;39.08;24.05;;;;;;;;;;5025749;28;20072;-80
2021/10/26 03:28:12;;;;;;;39.20;24.80;;;;;;;;;;5037196;28;20060;-80
2021/10/26 03:30:39;;;;;;;40.70;26.45;;;;;;;;;;5024535;28;20329;-80
2021/10/26 03:33:06;;;;;;;34.97;23.50;;;;;;;;;;5026807;28;20053;-81
2021/10/26 03:35:32;;;;;;;36.05;23.92;;;;;;;;;;5033167;28;20050;-81
2021/10/26 03:38:00;;;;;;;38.55;25.77;;;;;;;;;;5037934;28;20049;-81
2021/10/26 03:40:26;;;;;;;41.33;25.15;;;;;;;;;;5033444;28;20038;-81
2021/10/26 03:42:53;;;;;;;40.63;24.70;;;;;;;;;;5031816;28;20364;-82
2021/10/26 03:45:20;;;;;;;39.08;26.00;;;;;;;;;;5045839;28;20060;-81
2021/10/26 03:47:46;;;;;;;39.90;26.45;;;;;;;;;;5042828;28;20049;-81
2021/10/26 03:50:14;;;;;;;40.75;25.60;;;;;;;;;;5025708;28;20152;-81
2021/10/26 03:52:42;;;;;;;43.83;27.10;;;;;;;;;;5026030;28;20084;-82
2021/10/26 03:55:09;;;;;;;45.42;26.83;;;;;;;;;;5025189;28;20053;-81
2021/10/26 03:57:36;;;;;;;47.53;27.00;;;;;;;;;;5011523;28;20077;-80
2021/10/26 04:00:09;;;;;;;49.72;27.77;;;;;;;;;;5033767;28;20058;-80
2021/10/26 04:02:40;;;;;;;47.05;28.15;;;;;;;;;;5041965;28;20056;-82
2021/10/26 04:05:23;;;;;;;46.25;28.58;;;;;;;;;;5023213;28;20101;-80
2021/10/26 04:08:06;;;;;;;51.05;27.60;;;;;;;;;;5006552;28;20085;-82
2021/10/26 04:10:51;;;;;;;45.60;27.80;;;;;;;;;;5007253;28;20074;-79
2021/10/26 04:13:20;;;;;;;44.38;27.58;;;;;;;;;;5041652;28;20061;-80
2021/10/26 04:15:47;;;;;;;44.67;28.15;;;;;;;;;;5025527;28;20057;-81
2021/10/26 04:18:14;;;;;;;49.42;29.08;;;;;;;;;;5020210;28;20050;-80
2021/10/26 04:20:47;;;;;;;50.78;28.40;;;;;;;;;;5019946;28;20046;-80
2021/10/26 04:23:14;;;;;;;48.53;28.00;;;;;;;;;;5018922;28;20071;-80
2021/10/26 04:25:41;;;;;;;44.88;27.45;;;;;;;;;;5001644;28;20065;-81
2021/10/26 04:28:08;;;;;;;47.17;28.05;;;;;;;;;;5023194;28;20115;-80
2021/10/26 04:30:36;;;;;;;48.97;29.38;;;;;;;;;;5020131;28;20206;-81
2021/10/26 04:33:04;;;;;;;47.65;29.63;;;;;;;;;;5016224;28;20056;-81
2021/10/26 04:35:32;;;;;;;49.22;28.55;;;;;;;;;;4999194;28;20116;-80
2021/10/26 04:37:59;;;;;;;50.55;30.42;;;;;;;;;;5010047;28;20068;-81
2021/10/26 04:40:25;;;;;;;60.80;31.65;;;;;;;;;;5034464;28;20045;-81
2021/10/26 04:42:52;;;;;;;58.50;31.63;;;;;;;;;;5019338;28;20222;-81
2021/10/26 04:45:21;;;;;;;51.13;31.05;;;;;;;;;;5050124;28;20046;-81
2021/10/26 04:47:47;;;;;;;55.05;30.35;;;;;;;;;;5010172;28;20037;-81
2021/10/26 04:50:14;;;;;;;55.03;31.77;;;;;;;;;;5035051;28;20061;-81
2021/10/26 04:52:42;;;;;;;54.03;32.05;;;;;;;;;;5017382;28;20135;-81
2021/10/26 04:55:09;;;;;;;54.92;31.55;;;;;;;;;;5019240;28;20053;-81
2021/10/26 04:57:35;;;;;;;62.15;31.92;;;;;;;;;;5033951;28;20060;-81
2021/10/26 05:00:04;;;;;;;55.25;32.22;;;;;;;;;;5000083;28;20053;-80
2021/10/26 05:02:31;;;;;;;58.35;31.70;;;;;;;;;;5013537;28;20326;-81
2021/10/26 05:04:58;;;;;;;56.05;31.48;;;;;;;;;;5018391;28;20186;-81
2021/10/26 05:07:24;;;;;;;57.88;31.33;;;;;;;;;;5017668;28;20053;-81
2021/10/26 05:09:57;;;;;;;58.08;32.90;;;;;;;;;;5020489;28;20053;-80
2021/10/26 05:12:24;;;;;;;60.15;32.95;;;;;;;;;;5016815;28;20413;-80
2021/10/26 05:14:51;;;;;;;61.70;35.10;;;;;;;;;;5016738;28;20060;-81
2021/10/26 05:17:23;;;;;;;60.38;33.08;;;;;;;;;;5035146;28;20107;-82
2021/10/26 05:19:54;;;;;;;62.92;35.65;;;;;;;;;;5025007;28;20049;-82
2021/10/26 05:22:24;;;;;;;63.58;34.17;;;;;;;;;;5022110;28;20049;-81
2021/10/26 05:24:51;;;;;;;57.53;32.38;;;;;;;;;;5034073;28;20180;-82
2021/10/26 05:27:18;;;;;;;60.00;32.05;;;;;;;;;;5017684;28;20188;-82
2021/10/26 05:29:46;;;;;;;59.20;31.88;;;;;;;;;;5011354;28;20408;-82
2021/10/26 05:32:13;;;;;;;56.40;31.15;;;;;;;;;;5013877;28;20289;-82
2021/10/26 05:34:40;;;;;;;60.10;32.60;;;;;;;;;;5028156;28;20500;-81
2021/10/26 05:37:08;;;;;;;55.75;32.03;;;;;;;;;;5004505;28;20042;-80
2021/10/26 05:39:34;;;;;;;54.38;31.88;;;;;;;;;;5043707;28;20053;-81
2021/10/26 05:42:01;;;;;;;61.97;33.85;;;;;;;;;;5014252;28;20045;-80
2021/10/26 05:44:30;;;;;;;54.17;31.65;;;;;;;;;;5014302;28;20298;-81
2021/10/26 05:46:57;;;;;;;54.13;31.23;;;;;;;;;;5016078;28;20064;-81
2021/10/26 05:49:24;;;;;;;54.40;31.65;;;;;;;;;;5015896;28;20068;-80
2021/10/26 05:51:52;;;;;;;57.25;32.63;;;;;;;;;;5012058;28;20483;-81
2021/10/26 05:54:19;;;;;;;51.33;30.42;;;;;;;;;;5017373;28;20052;-82
2021/10/26 05:56:46;;;;;;;45.28;29.77;;;;;;;;;;5024147;28;20140;-82
2021/10/26 05:59:13;;;;;;;53.35;31.98;;;;;;;;;;5020152;28;20037;-82
2021/10/26 06:01:40;;;;;;;48.60;29.35;;;;;;;;;;4990975;28;20056;-82
2021/10/26 06:04:07;;;;;;;51.08;29.58;;;;;;;;;;5017067;28;20606;-82
2021/10/26 06:06:34;;;;;;;49.40;28.67;;;;;;;;;;5011155;28;20246;-82
2021/10/26 06:09:01;;;;;;;50.08;28.02;;;;;;;;;;5012725;28;20080;-82
2021/10/26 06:11:29;;;;;;;48.55;29.70;;;;;;;;;;5010616;28;20072;-84
2021/10/26 06:14:05;;;;;;;48.28;29.63;;;;;;;;;;5002811;28;20049;-83
2021/10/26 06:16:36;;;;;;;44.65;28.02;;;;;;;;;;5008921;28;20052;-82
2021/10/26 06:19:03;;;;;;;57.97;28.73;;;;;;;;;;5027777;28;20077;-82
2021/10/26 06:21:30;;;;;;;47.05;29.00;;;;;;;;;;5025670;28;20126;-82
2021/10/26 06:23:57;;;;;;;50.70;29.77;;;;;;;;;;5011101;28;20231;-82
2021/10/26 06:26:24;;;;;;;48.80;27.90;;;;;;;;;;5011098;28;20042;-82
2021/10/26 06:28:51;;;;;;;49.50;29.35;;;;;;;;;;5036323;28;20076;-82
2021/10/26 06:31:18;;;;;;;51.33;28.92;;;;;;;;;;5049797;28;20067;-83
2021/10/26 06:33:45;;;;;;;54.08;28.92;;;;;;;;;;5030984;28;20045;-82
2021/10/26 06:36:12;;;;;;;47.72;27.33;;;;;;;;;;5013038;28;20054;-82
2021/10/26 06:38:39;;;;;;;50.20;28.77;;;;;;;;;;5014350;28;20049;-83
2021/10/26 06:41:09;;;;;;;45.28;28.33;;;;;;;;;;5020438;28;20060;-83
2021/10/26 06:43:39;;;;;;;40.63;27.10;;;;;;;;;;5021346;28;20080;-83
2021/10/26 06:46:06;;;;;;;42.80;27.08;;;;;;;;;;5021788;28;20261;-83
2021/10/26 06:48:39;;;;;;;47.80;28.48;;;;;;;;;;5018530;28;20046;-82
2021/10/26 06:51:06;;;;;;;44.85;27.88;;;;;;;;;;5014269;28;20069;-82
2021/10/26 06:53:38;;;;;;;43.00;27.95;;;;;;;;;;5013759;28;20053;-82
2021/10/26 06:56:15;;;;;;;51.03;29.45;;;;;;;;;;4995057;28;20061;-82
2021/10/26 06:58:44;;;;;;;46.80;27.75;;;;;;;;;;5011615;28;20128;-82
2021/10/26 07:01:11;;;;;;;48.72;29.80;;;;;;;;;;5011417;28;20134;-82
2021/10/26 07:03:40;;;;;;;51.25;30.17;;;;;;;;;;5010574;28;20046;-82
2021/10/26 07:06:08;;;;;;;46.03;28.55;;;;;;;;;;4993361;28;20209;-82
2021/10/26 07:08:35;;;;;;;44.05;27.95;;;;;;;;;;5009327;28;20394;-82
2021/10/26 07:11:12;;;;;;;47.67;27.67;;;;;;;;;;5008183;28;20343;-82
2021/10/26 07:13:39;;;;;;;42.08;26.25;;;;;;;;;;5009318;28;20341;-82
2021/10/26 07:16:08;;;;;;;39.53;27.48;;;;;;;;;;4993010;28;20061;-82
2021/10/26 07:18:34;;;;;;;43.35;26.75;;;;;;;;;;5011150;28;20330;-82
2021/10/26 07:21:02;;;;;;;40.92;26.70;;;;;;;;;;5010962;28;20050;-82
2021/10/26 07:23:29;;;;;;;42.22;26.70;;;;;;;;;;5008574;28;20274;-82
2021/10/26 07:25:56;;;;;;;44.70;26.83;;;;;;;;;;5010847;28;20126;-84
2021/10/26 07:28:23;;;;;;;37.75;25.02;;;;;;;;;;5011581;28;20366;-82
2021/10/26 07:30:50;;;;;;;36.05;24.77;;;;;;;;;;5011301;28;20049;-82
2021/10/26 07:33:24;;;;;;;36.38;23.95;;;;;;;;;;5007291;28;20050;-83
2021/10/26 07:35:53;;;;;;;41.00;23.83;;;;;;;;;;5007559;28;20141;-83
2021/10/26 07:38:59;;;;;;;31.02;21.88;;;;;;;;;;5007852;28;20046;-83
2021/10/26 07:41:16;;;;;;;31.50;21.23;;;;;;;;;;5007633;28;20233;-83
2021/10/26 07:43:43;;;;;;;35.75;21.13;;;;;;;;;;5007532;28;20223;-82
2021/10/26 07:46:10;;;;;;;38.38;19.98;;;;;;;;;;5007394;28;20179;-82
2021/10/26 07:48:36;;;;;;;28.38;18.95;;;;;;;;;;4989383;28;20054;-82
2021/10/26 07:51:03;;;;;;;36.30;20.90;;;;;;;;;;5007061;28;20143;-82
2021/10/26 07:53:33;;;;;;;29.05;21.52;;;;;;;;;;4996697;28;20054;-82
2021/10/26 07:56:02;;;;;;;29.45;19.40;;;;;;;;;;4996712;28;20184;-82
2021/10/26 07:58:29;;;;;;;29.45;19.00;;;;;;;;;;4995442;28;20046;-82
2021/10/26 08:00:57;;;;;;;30.38;18.83;;;;;;;;;;5013004;28;20104;-82
2021/10/26 08:03:25;;;;;;;31.55;20.58;;;;;;;;;;5010461;28;20120;-82
2021/10/26 08:05:53;;;;;;;31.55;19.25;;;;;;;;;;5011745;28;20062;-83
2021/10/26 08:08:22;;;;;;;30.83;19.50;;;;;;;;;;5013765;28;20330;-82
2021/10/26 08:10:49;;;;;;;34.45;19.33;;;;;;;;;;5012225;28;20362;-82
2021/10/26 08:13:19;;;;;;;27.48;19.27;;;;;;;;;;5011567;28;20511;-84
2021/10/26 08:15:56;;;;;;;30.95;19.10;;;;;;;;;;5012873;28;20085;-83
2021/10/26 08:18:24;;;;;;;32.60;19.10;;;;;;;;;;5014710;28;20310;-81
2021/10/26 08:20:51;;;;;;;28.45;18.65;;;;;;;;;;4993226;28;20077;-83
2021/10/26 08:23:19;;;;;;;34.55;19.60;;;;;;;;;;5010481;28;20096;-82
2021/10/26 08:25:50;;;;;;;30.75;18.77;;;;;;;;;;5011625;28;20061;-83
2021/10/26 08:28:17;;;;;;;31.35;19.27;;;;;;;;;;5010569;28;20081;-82
2021/10/26 08:36:03;;;;;;;31.20;18.55;;;;;;;;;;5009892;28;20465;-84
2021/10/26 08:38:30;;;;;;;31.48;18.60;;;;;;;;;;4992756;28;20081;-82
2021/10/26 08:40:57;;;;;;;37.55;19.10;;;;;;;;;;4993175;28;20258;-82
2021/10/26 08:43:24;;;;;;;36.78;18.63;;;;;;;;;;5006939;28;20060;-81
2021/10/26 08:45:53;;;;;;;33.13;20.10;;;;;;;;;;5009506;28;20210;-81
2021/10/26 08:48:23;;;;;;;32.13;21.48;;;;;;;;;;5007841;28;20132;-82
2021/10/26 08:50:56;;;;;;;32.42;21.30;;;;;;;;;;5010324;28;20532;-83
2021/10/26 08:53:24;;;;;;;33.55;18.67;;;;;;;;;;5009166;28;20156;-83
2021/10/26 08:55:58;;;;;;;29.77;18.23;;;;;;;;;;5009541;28;20139;-83
2021/10/26 08:58:26;;;;;;;30.17;19.00;;;;;;;;;;5006696;28;20058;-83
2021/10/26 09:01:05;;;;;;;27.15;18.33;;;;;;;;;;5008071;28;20057;-83
2021/10/26 09:03:36;;;;;;;27.85;17.58;;;;;;;;;;4991998;28;20460;-83
2021/10/26 09:06:04;;;;;;;27.88;17.38;;;;;;;;;;5009416;28;20080;-83
2021/10/26 09:08:31;;;;;;;29.10;17.52;;;;;;;;;;5009104;28;20118;-82
2021/10/26 09:11:02;;;;;;;29.92;17.60;;;;;;;;;;5009589;28;20064;-83
2021/10/26 09:19:18;;;;;;;29.13;16.90;;;;;;;;;;5013732;28;20259;-82
2021/10/26 09:22:15;;;;;;;27.13;15.88;;;;;;;;;;4996851;28;20204;-83
2021/10/26 09:25:02;;;;;;;27.17;16.20;;;;;;;;;;4993817;28;20080;-82
2021/10/26 09:27:30;;;;;;;25.20;14.50;;;;;;;;;;5018881;28;20109;-83
2021/10/26 09:29:58;;;;;;;33.75;16.23;;;;;;;;;;5008787;28;20069;-82
2021/10/26 09:32:39;;;;;;;28.95;15.85;;;;;;;;;;5008665;28;20093;-82
2021/10/26 09:35:07;;;;;;;23.40;14.70;;;;;;;;;;5007321;28;20153;-82
2021/10/26 09:37:35;;;;;;;24.17;16.00;;;;;;;;;;5003155;28;20176;-83
2021/10/26 09:40:10;;;;;;;23.80;14.60;;;;;;;;;;5005449;28;20198;-83
2021/10/26 09:42:39;;;;;;;24.58;14.38;;;;;;;;;;5002680;28;20173;-82
2021/10/26 09:45:06;;;;;;;25.27;14.73;;;;;;;;;;4986350;28;20073;-82
2021/10/26 09:47:36;;;;;;;23.00;13.98;;;;;;;;;;5003443;28;20399;-83
2021/10/26 09:50:05;;;;;;;21.92;12.95;;;;;;;;;;5004243;28;20050;-82
2021/10/26 09:52:41;;;;;;;21.98;13.32;;;;;;;;;;5004134;28;20250;-82
2021/10/26 09:55:21;;;;;;;23.25;12.32;;;;;;;;;;4986852;28;20054;-82
2021/10/26 09:57:47;;;;;;;23.50;13.27;;;;;;;;;;5004452;28;20401;-82
2021/10/26 10:00:20;;;;;;;25.13;14.32;;;;;;;;;;4987607;28;20046;-82
2021/10/26 10:02:59;;;;;;;22.88;15.15;;;;;;;;;;5002854;28;20056;-83
2021/10/26 10:05:29;;;;;;;27.05;14.93;;;;;;;;;;5002708;28;20360;-84
2021/10/26 10:07:59;;;;;;;27.92;16.35;;;;;;;;;;5004903;28;20188;-83
2021/10/26 10:10:37;;;;;;;23.80;15.25;;;;;;;;;;4987928;28;20324;-82
2021/10/26 10:13:04;;;;;;;22.13;14.68;;;;;;;;;;4987636;28;20099;-83
2021/10/26 10:15:33;;;;;;;24.65;14.43;;;;;;;;;;5002479;28;20061;-84
2021/10/26 10:18:01;;;;;;;26.23;15.30;;;;;;;;;;5004275;28;20226;-83
2021/10/26 10:20:28;;;;;;;29.60;15.80;;;;;;;;;;5003485;28;20049;-83
2021/10/26 10:22:59;;;;;;;29.73;16.75;;;;;;;;;;4990281;28;20212;-83
2021/10/26 10:25:29;;;;;;;24.48;14.73;;;;;;;;;;5004755;28;20245;-84
2021/10/26 10:27:56;;;;;;;25.00;15.40;;;;;;;;;;5005350;28;20056;-84
2021/10/26 10:30:23;;;;;;;21.90;14.85;;;;;;;;;;5005235;28;20050;-84
2021/10/26 10:32:50;;;;;;;23.23;15.23;;;;;;;;;;5003644;28;20050;-83
2021/10/26 10:35:18;;;;;;;21.60;14.10;;;;;;;;;;5003899;28;20057;-83
2021/10/26 10:37:47;;;;;;;24.30;13.52;;;;;;;;;;5006093;28;20046;-84
2021/10/26 10:40:21;;;;;;;22.17;14.18;;;;;;;;;;5004965;28;20073;-83
2021/10/26 10:42:51;;;;;;;23.25;13.77;;;;;;;;;;4988820;28;20140;-83
2021/10/26 10:45:32;;;;;;;25.02;12.77;;;;;;;;;;5004584;28;20042;-83
2021/10/26 10:47:59;;;;;;;23.48;13.07;;;;;;;;;;5003382;28;20396;-83
2021/10/26 10:50:27;;;;;;;21.42;12.82;;;;;;;;;;5002759;28;20060;-83
2021/10/26 10:53:18;;;;;;;17.42;11.00;;;;;;;;;;4984518;28;20042;-82
2021/10/26 10:55:51;;;;;;;18.45;10.70;;;;;;;;;;5006362;28;20425;-84
2021/10/26 10:58:22;;;;;;;19.48;10.93;;;;;;;;;;5002827;28;20046;-83
2021/10/26 11:00:49;;;;;;;22.50;11.20;;;;;;;;;;5005550;28;20070;-83
2021/10/26 11:03:32;;;;;;;18.13;10.20;;;;;;;;;;5003575;28;20080;-83
2021/10/26 11:06:03;;;;;;;19.98;10.98;;;;;;;;;;5005316;28;20053;-83
2021/10/26 11:08:42;;;;;;;20.13;11.00;;;;;;;;;;5004065;28;20124;-83
2021/10/26 11:11:09;;;;;;;19.25;10.93;;;;;;;;;;4986629;28;20076;-84
2021/10/26 11:13:37;;;;;;;23.45;12.02;;;;;;;;;;4986081;28;20050;-83
2021/10/26 11:16:08;;;;;;;20.70;10.95;;;;;;;;;;5006475;28;20279;-83
2021/10/26 11:18:44;;;;;;;21.58;11.82;;;;;;;;;;5006001;28;20053;-83
2021/10/26 11:21:26;;;;;;;20.20;10.23;;;;;;;;;;5006815;28;20182;-83
2021/10/26 11:23:58;;;;;;;20.25;10.70;;;;;;;;;;5009155;28;20064;-83
2021/10/26 11:26:33;;;;;;;22.20;9.77;;;;;;;;;;5008822;28;20153;-83
2021/10/26 11:29:00;;;;;;;20.70;9.68;;;;;;;;;;5011499;28;20061;-83
2021/10/26 11:31:29;;;;;;;20.48;9.38;;;;;;;;;;5008655;28;20045;-83
2021/10/26 11:33:55;;;;;;;16.58;8.43;;;;;;;;;;5009807;28;20046;-83
2021/10/26 11:36:30;;;;;;;19.45;10.10;;;;;;;;;;4993047;28;20057;-82
2021/10/26 11:38:58;;;;;;;14.32;8.80;;;;;;;;;;5010219;28;20073;-83
2021/10/26 11:41:27;;;;;;;18.17;8.38;;;;;;;;;;5009134;28;20320;-84
2021/10/26 11:44:05;;;;;;;17.58;8.35;;;;;;;;;;4993360;28;20054;-84
2021/10/26 11:46:38;;;;;;;18.00;7.95;;;;;;;;;;5012666;28;20096;-83
2021/10/26 11:49:17;;;;;;;16.92;8.00;;;;;;;;;;5010292;28;20202;-82
2021/10/26 11:51:49;;;;;;;18.42;7.72;;;;;;;;;;5008295;28;20364;-83
2021/10/26 11:54:24;;;;;;;20.08;7.40;;;;;;;;;;5008682;28;20121;-83
2021/10/26 11:56:55;;;;;;;18.45;6.90;;;;;;;;;;5008683;28;20166;-83
2021/10/26 11:59:22;;;;;;;17.80;7.45;;;;;;;;;;5006416;28;20460;-83
2021/10/26 12:01:56;;;;;;;20.45;8.70;;;;;;;;;;4989735;28;20207;-82
2021/10/26 12:04:24;;;;;;;13.45;7.30;;;;;;;;;;5006030;28;20306;-83
2021/10/26 12:06:56;;;;;;;18.42;7.57;;;;;;;;;;5008878;28;20069;-83
2021/10/26 12:09:23;;;;;;;16.80;6.55;;;;;;;;;;5008462;28;20049;-83
2021/10/26 12:11:57;;;;;;;17.23;6.88;;;;;;;;;;5007350;28;20200;-83
2021/10/26 12:14:34;;;;;;;13.52;7.30;;;;;;;;;;4990238;28;20076;-82
2021/10/26 12:17:05;;;;;;;20.50;7.68;;;;;;;;;;4992165;28;20046;-83
2021/10/26 12:19:52;;;;;;;17.70;8.07;;;;;;;;;;5012366;28;20050;-83
2021/10/26 12:22:28;;;;;;;12.52;6.32;;;;;;;;;;5039229;28;20061;-83
2021/10/26 12:24:57;;;;;;;15.57;7.45;;;;;;;;;;5017025;28;20056;-83
2021/10/26 12:27:32;;;;;;;17.67;7.28;;;;;;;;;;5006331;28;20469;-82
2021/10/26 12:30:15;;;;;;;14.32;6.43;;;;;;;;;;5008564;28;20050;-83
2021/10/26 12:32:53;;;;;;;14.30;6.75;;;;;;;;;;4990768;28;20096;-82
2021/10/26 12:35:24;;;;;;;12.20;7.03;;;;;;;;;;5003759;28;20174;-83
2021/10/26 12:38:04;;;;;;;17.30;6.72;;;;;;;;;;5003511;28;20136;-83
2021/10/26 12:40:38;;;;;;;16.45;7.25;;;;;;;;;;5002030;28;20100;-83
2021/10/26 12:43:21;;;;;;;14.70;6.95;;;;;;;;;;4988823;28;20287;-82
2021/10/26 12:45:57;;;;;;;14.90;7.63;;;;;;;;;;5009336;28;20103;-82
2021/10/26 12:48:33;;;;;;;13.57;7.05;;;;;;;;;;5018958;28;20393;-82
2021/10/26 12:51:03;;;;;;;16.13;7.10;;;;;;;;;;5019687;28;20068;-82
2021/10/26 12:53:43;;;;;;;16.90;7.43;;;;;;;;;;5036312;28;20183;-82
2021/10/26 12:56:26;;;;;;;16.52;7.30;;;;;;;;;;5017742;28;20113;-82
2021/10/26 12:58:56;;;;;;;15.88;6.85;;;;;;;;;;5027013;28;20046;-82
2021/10/26 13:01:39;;;;;;;21.70;7.70;;;;;;;;;;5006989;28;20045;-82
2021/10/26 13:04:10;;;;;;;15.60;8.23;;;;;;;;;;5042414;28;20053;-82
2021/10/26 13:06:42;;;;;;;15.30;7.32;;;;;;;;;;5027734;28;20205;-81
2021/10/26 13:09:19;;;;;;;19.23;7.80;;;;;;;;;;5028049;28;20049;-82
2021/10/26 13:12:00;;;;;;;17.00;8.40;;;;;;;;;;5029637;28;20377;-82
2021/10/26 13:14:40;;;;;;;17.80;8.65;;;;;;;;;;5013118;28;20207;-82
2021/10/26 13:17:23;;;;;;;20.63;8.25;;;;;;;;;;5025188;28;20053;-82
2021/10/26 13:20:11;;;;;;;17.70;9.00;;;;;;;;;;5008289;28;20146;-82
2021/10/26 13:22:39;;;;;;;17.92;8.15;;;;;;;;;;5007898;28;20131;-83
2021/10/26 13:25:06;;;;;;;16.20;8.35;;;;;;;;;;5026690;28;20474;-82
2021/10/26 13:27:33;;;;;;;20.00;8.32;;;;;;;;;;5007414;28;20053;-82
2021/10/26 13:30:00;;;;;;;12.75;7.38;;;;;;;;;;5006081;28;20049;-82
2021/10/26 13:32:27;;;;;;;15.85;8.43;;;;;;;;;;5039946;28;20558;-82
2021/10/26 13:34:54;;;;;;;17.45;7.53;;;;;;;;;;5008250;28;20069;-81
2021/10/26 13:37:21;;;;;;;22.98;8.70;;;;;;;;;;5026002;28;20117;-81
2021/10/26 13:39:54;;;;;;;17.52;7.63;;;;;;;;;;5027694;28;20150;-81
2021/10/26 13:42:21;;;;;;;14.88;7.25;;;;;;;;;;5023251;28;20080;-82
2021/10/26 13:44:48;;;;;;;16.70;8.25;;;;;;;;;;5010753;28;20132;-82
2021/10/26 13:47:20;;;;;;;18.90;7.50;;;;;;;;;;5029562;28;20170;-81
2021/10/26 13:49:47;;;;;;;17.02;8.30;;;;;;;;;;5012504;28;20049;-82
2021/10/26 13:52:15;;;;;;;18.48;8.05;;;;;;;;;;5048754;28;20209;-82
2021/10/26 13:54:42;;;;;;;17.23;8.52;;;;;;;;;;5063346;28;20230;-82
2021/10/26 13:57:09;;;;;;;18.70;7.75;;;;;;;;;;5010262;28;20372;-82
2021/10/26 13:59:36;;;;;;;16.45;8.60;;;;;;;;;;5028706;28;20076;-82
2021/10/26 14:02:06;;;;;;;13.98;7.68;;;;;;;;;;5012923;28;20041;-82
2021/10/26 14:04:36;;;;;;;17.27;7.68;;;;;;;;;;5028215;28;20057;-82
2021/10/26 14:07:03;;;;;;;15.93;7.90;;;;;;;;;;4990261;28;20174;-82
2021/10/26 14:09:30;;;;;;;15.98;7.63;;;;;;;;;;5023606;28;20042;-82
2021/10/26 14:11:57;;;;;;;16.50;7.47;;;;;;;;;;5012196;28;20049;-82
2021/10/26 14:14:24;;;;;;;18.65;8.00;;;;;;;;;;5011650;28;20229;-82
2021/10/26 14:16:51;;;;;;;15.85;7.88;;;;;;;;;;5018276;28;20092;-81
2021/10/26 14:19:18;;;;;;;15.70;7.88;;;;;;;;;;4996977;28;20096;-81
2021/10/26 14:21:45;;;;;;;14.35;7.55;;;;;;;;;;4996483;28;20065;-81
2021/10/26 14:24:12;;;;;;;16.13;7.30;;;;;;;;;;5012608;28;20410;-81
2021/10/26 14:26:42;;;;;;;20.60;6.97;;;;;;;;;;5013286;28;20368;-82
2021/10/26 14:29:09;;;;;;;15.93;6.50;;;;;;;;;;5030938;28;20237;-82
2021/10/26 14:31:36;;;;;;;16.75;7.03;;;;;;;;;;5013362;28;20495;-82
2021/10/26 14:34:02;;;;;;;11.90;6.40;;;;;;;;;;5029964;28;20052;-82
2021/10/26 14:39:27;;;;;;;14.63;6.30;;;;;;;;;;5029783;28;20072;-82
2021/10/26 14:53:14;;;;;;;16.08;6.25;;;;;;;;;;5033380;28;20049;-81
2021/10/26 14:55:46;;;;;;;11.18;6.47;;;;;;;;;;5031659;28;20126;-80
2021/10/26 14:58:13;;;;;;;12.60;6.63;;;;;;;;;;5048627;28;20111;-82
2021/10/26 15:00:40;;;;;;;15.43;6.78;;;;;;;;;;5034401;28;20516;-82